Time;durP1;ratioP1;P1;durP2;ratioP2;P2;SDS_P1;SDS_P2;PMS_P1;PMS_P2;Temp;Humidity;BMP_temperature;BMP_pressure;BME280_temperature;BME280_humidity;BME280_pressure;Samples;Min_cycle;Max_cycle;Signal;HPM_P1;HPM_P2
2022/09/08 00:00:31;;;;;;;16.07;6.30;;;21.30;99.90;;;;;;6155760;23;20412;-78
2022/09/08 00:03:02;;;;;;;7.47;5.43;;;21.20;99.90;;;;;;6155363;23;20473;-79
2022/09/08 00:05:33;;;;;;;9.43;5.13;;;21.20;99.90;;;;;;6155230;23;20432;-77
2022/09/08 00:08:01;;;;;;;5.50;4.77;;;21.20;99.90;;;;;;6155263;23;20719;-77
2022/09/08 00:10:30;;;;;;;7.40;5.20;;;21.30;99.90;;;;;;6154824;23;20945;-78
2022/09/08 00:13:00;;;;;;;6.37;5.30;;;21.20;99.90;;;;;;6156856;23;20755;-78
2022/09/08 00:15:28;;;;;;;9.70;6.27;;;21.20;99.90;;;;;;6155489;23;20438;-78
2022/09/08 00:17:55;;;;;;;6.53;5.60;;;21.20;99.90;;;;;;6156634;23;20416;-77
2022/09/08 00:20:22;;;;;;;6.60;5.87;;;21.20;99.90;;;;;;6157559;23;20407;-78
2022/09/08 00:22:49;;;;;;;10.23;6.60;;;21.10;99.90;;;;;;6160452;23;20387;-77
2022/09/08 00:25:17;;;;;;;7.07;5.70;;;21.10;99.90;;;;;;6156580;23;20415;-77
2022/09/08 00:27:44;;;;;;;6.00;5.40;;;21.00;99.90;;;;;;6155779;23;20414;-77
2022/09/08 00:30:11;;;;;;;8.67;5.17;;;21.00;99.90;;;;;;6155643;23;20419;-78
2022/09/08 00:32:38;;;;;;;10.97;5.20;;;21.00;99.90;;;;;;6154770;23;20399;-78
2022/09/08 00:35:14;;;;;;;6.07;5.30;;;21.00;99.90;;;;;;6155079;23;20447;-78
2022/09/08 00:37:41;;;;;;;5.17;4.67;;;20.90;99.90;;;;;;6155094;23;20550;-76
2022/09/08 00:40:09;;;;;;;5.50;5.00;;;20.90;99.90;;;;;;6160317;23;20412;-85
2022/09/08 00:42:39;;;;;;;5.93;4.70;;;20.90;99.90;;;;;;6160130;23;20417;-87
2022/09/08 00:45:06;;;;;;;6.10;4.90;;;20.90;99.90;;;;;;6162595;23;20929;-87
2022/09/08 00:47:43;;;;;;;7.50;5.20;;;20.90;99.90;;;;;;6170997;23;20397;-86
2022/09/08 00:50:16;;;;;;;6.93;5.47;;;20.90;99.90;;;;;;6182798;23;20364;-87
2022/09/08 00:52:52;;;;;;;7.63;4.90;;;20.90;99.90;;;;;;6174472;23;20395;-88
2022/09/08 00:55:39;;;;;;;5.27;4.77;;;20.90;99.90;;;;;;6170187;23;20485;-86
2022/09/08 00:58:08;;;;;;;5.63;5.10;;;21.00;99.90;;;;;;6176188;23;20384;-87
2022/09/08 01:00:44;;;;;;;5.57;4.83;;;21.00;99.90;;;;;;6171963;23;20418;-86
2022/09/08 01:03:15;;;;;;;8.50;6.50;;;20.90;99.90;;;;;;6172679;23;20378;-88
2022/09/08 01:05:51;;;;;;;7.40;6.63;;;20.80;99.90;;;;;;6160395;23;20458;-86
2022/09/08 01:14:07;;;;;;;7.20;5.83;;;20.50;99.90;;;;;;6159049;23;20425;-88
2022/09/08 01:16:40;;;;;;;5.90;5.33;;;20.50;99.90;;;;;;6155105;23;20431;-88
2022/09/08 01:19:13;;;;;;;6.40;5.80;;;20.50;99.90;;;;;;6155491;23;20683;-86
2022/09/08 01:21:47;;;;;;;7.57;6.77;;;20.40;99.90;;;;;;6156525;23;20391;-87
2022/09/08 01:24:39;;;;;;;6.97;6.17;;;20.40;99.90;;;;;;6169138;23;20395;-85
2022/09/08 01:27:21;;;;;;;7.10;5.30;;;20.40;99.90;;;;;;6164468;23;20432;-87
2022/09/08 01:29:49;;;;;;;6.10;5.47;;;20.40;99.90;;;;;;6158127;23;20711;-87
2022/09/08 01:32:18;;;;;;;6.93;4.67;;;20.40;99.90;;;;;;6160091;23;20395;-87
2022/09/08 01:34:46;;;;;;;5.47;4.83;;;20.40;99.90;;;;;;6162202;23;20978;-87
2022/09/08 01:37:22;;;;;;;6.13;5.57;;;20.30;99.90;;;;;;6165631;23;20490;-87
2022/09/08 01:39:48;;;;;;;7.00;5.60;;;20.40;99.90;;;;;;6164888;23;20399;-87
2022/09/08 01:42:16;;;;;;;5.63;4.83;;;20.40;99.90;;;;;;6156306;23;20415;-86
2022/09/08 01:44:43;;;;;;;6.43;5.80;;;20.30;99.90;;;;;;6154977;23;20742;-86
2022/09/08 01:47:10;;;;;;;8.10;6.00;;;20.30;99.90;;;;;;6155313;23;20930;-88
2022/09/08 01:49:37;;;;;;;6.07;5.33;;;20.20;99.90;;;;;;6155008;23;20410;-88
2022/09/08 01:52:05;;;;;;;5.43;4.90;;;20.20;99.90;;;;;;6156399;23;20482;-88
2022/09/08 01:54:31;;;;;;;6.47;5.77;;;20.30;99.90;;;;;;6157490;23;20438;-88
2022/09/08 01:56:58;;;;;;;7.60;6.50;;;20.30;99.90;;;;;;6176276;23;20415;-85
2022/09/08 01:59:27;;;;;;;7.27;6.50;;;20.30;99.90;;;;;;6181683;23;20467;-87
2022/09/08 02:01:53;;;;;;;7.93;6.50;;;20.30;99.90;;;;;;6157091;23;20403;-87
2022/09/08 02:04:21;;;;;;;7.80;6.80;;;20.30;99.90;;;;;;6156486;23;20400;-87
2022/09/08 02:06:48;;;;;;;9.40;7.43;;;20.40;99.90;;;;;;6156292;23;20462;-87
2022/09/08 02:09:14;;;;;;;7.40;6.40;;;20.30;99.90;;;;;;6157614;23;20905;-87
2022/09/08 02:11:41;;;;;;;7.00;6.40;;;20.30;99.90;;;;;;6161890;23;20417;-87
2022/09/08 02:14:08;;;;;;;6.50;5.90;;;20.20;99.90;;;;;;6163670;23;20438;-87
2022/09/08 02:16:36;;;;;;;7.17;5.40;;;20.20;99.90;;;;;;6166183;23;20431;-87
2022/09/08 02:19:02;;;;;;;8.90;5.10;;;20.20;99.90;;;;;;6157076;23;20793;-87
2022/09/08 02:21:29;;;;;;;9.43;4.83;;;20.20;99.90;;;;;;6163239;23;20411;-87
2022/09/08 02:23:56;;;;;;;4.27;3.90;;;20.20;99.90;;;;;;6181001;23;20407;-87
2022/09/08 02:26:28;;;;;;;5.53;3.97;;;20.20;99.90;;;;;;6180701;23;20502;-87
2022/09/08 02:28:55;;;;;;;5.00;4.50;;;20.20;99.90;;;;;;6163383;23;20391;-89
2022/09/08 02:31:23;;;;;;;4.53;4.13;;;20.20;99.90;;;;;;6171708;23;20422;-88
2022/09/08 02:33:51;;;;;;;4.37;3.97;;;20.20;99.90;;;;;;6176558;23;20486;-85
2022/09/08 02:36:19;;;;;;;7.50;4.60;;;20.20;99.90;;;;;;6173529;23;20486;-88
2022/09/08 02:38:49;;;;;;;6.53;4.50;;;20.10;99.90;;;;;;6163278;23;20403;-87
2022/09/08 02:41:16;;;;;;;7.47;4.87;;;20.10;99.90;;;;;;6170132;23;20403;-88
2022/09/08 02:43:42;;;;;;;5.27;3.63;;;20.10;99.90;;;;;;6164085;23;20442;-87
2022/09/08 02:46:10;;;;;;;6.23;4.37;;;20.00;99.90;;;;;;6162024;23;20431;-88
2022/09/08 02:48:37;;;;;;;5.03;4.57;;;20.00;99.90;;;;;;6159046;23;20419;-88
2022/09/08 02:51:07;;;;;;;3.77;3.47;;;20.00;99.90;;;;;;6157804;23;20411;-87
2022/09/08 02:53:34;;;;;;;6.33;3.97;;;20.00;99.90;;;;;;6161296;23;20395;-87
2022/09/08 02:56:02;;;;;;;3.70;3.40;;;20.00;99.90;;;;;;6164963;23;20419;-88
2022/09/08 02:58:29;;;;;;;5.90;4.20;;;20.00;99.90;;;;;;6159277;23;20891;-87
2022/09/08 03:00:56;;;;;;;4.40;4.00;;;20.00;99.90;;;;;;6157914;23;20410;-87
2022/09/08 03:03:24;;;;;;;3.57;3.17;;;20.00;99.90;;;;;;6158174;23;20885;-88
2022/09/08 03:05:51;;;;;;;3.97;3.57;;;19.90;99.90;;;;;;6159536;23;20411;-87
2022/09/08 03:08:20;;;;;;;4.50;3.30;;;19.90;99.90;;;;;;6157140;23;20906;-87
2022/09/08 03:10:48;;;;;;;4.67;4.10;;;19.90;99.90;;;;;;6178168;23;20442;-88
2022/09/08 03:13:15;;;;;;;6.77;3.13;;;19.80;99.90;;;;;;6180447;23;20415;-85
2022/09/08 03:15:42;;;;;;;3.27;2.83;;;19.80;99.90;;;;;;6169363;23;20458;-90
2022/09/08 03:18:10;;;;;;;3.40;3.10;;;19.80;99.90;;;;;;6166904;23;20403;-87
2022/09/08 03:20:39;;;;;;;4.10;2.80;;;19.80;99.90;;;;;;6173521;23;20416;-90
2022/09/08 03:23:07;;;;;;;2.87;2.50;;;19.80;99.90;;;;;;6158088;23;20438;-88
2022/09/08 03:25:37;;;;;;;3.60;2.40;;;19.90;99.90;;;;;;6173152;23;20470;-86
2022/09/08 03:28:04;;;;;;;3.30;2.20;;;19.80;99.90;;;;;;6184612;23;20390;-86
2022/09/08 03:30:33;;;;;;;2.73;2.30;;;19.80;99.90;;;;;;6181699;23;20411;-86
2022/09/08 03:33:00;;;;;;;2.73;2.53;;;19.90;99.90;;;;;;6179022;23;20403;-87
2022/09/08 03:35:27;;;;;;;3.37;2.17;;;19.80;99.90;;;;;;6177706;23;20458;-89
2022/09/08 03:37:54;;;;;;;4.73;2.53;;;19.80;99.90;;;;;;6177059;23;20491;-87
2022/09/08 03:40:21;;;;;;;3.53;2.10;;;19.70;99.90;;;;;;6175562;23;20403;-87
2022/09/08 03:42:49;;;;;;;4.93;2.40;;;19.70;99.90;;;;;;6158055;23;20420;-87
2022/09/08 03:45:26;;;;;;;5.10;2.83;;;19.60;99.90;;;;;;6155956;23;20408;-87
2022/09/08 03:47:53;;;;;;;2.80;2.20;;;19.70;99.90;;;;;;6156004;23;20403;-89
2022/09/08 03:50:20;;;;;;;3.10;2.20;;;19.70;99.90;;;;;;6176842;23;20441;-88
2022/09/08 03:52:47;;;;;;;6.27;3.07;;;19.70;99.90;;;;;;6156557;23;20462;-88
2022/09/08 03:55:14;;;;;;;3.07;1.90;;;19.60;99.90;;;;;;6155191;23;20439;-85
2022/09/08 03:57:40;;;;;;;2.77;1.73;;;19.50;99.90;;;;;;6155744;23;20466;-87
2022/09/08 04:00:10;;;;;;;2.33;2.00;;;19.40;99.90;;;;;;6156134;23;20403;-87
2022/09/08 04:02:37;;;;;;;2.20;1.93;;;19.50;99.90;;;;;;6156023;23;20439;-87
2022/09/08 04:05:05;;;;;;;2.67;1.90;;;19.40;99.90;;;;;;6156501;23;20902;-86
2022/09/08 04:07:33;;;;;;;4.13;2.23;;;19.40;99.90;;;;;;6162866;23;20414;-88
2022/09/08 04:10:01;;;;;;;2.53;1.90;;;19.40;99.90;;;;;;6157067;23;20411;-86
2022/09/08 04:12:28;;;;;;;2.60;1.50;;;19.30;99.90;;;;;;6163639;23;20410;-88
2022/09/08 04:14:55;;;;;;;2.60;1.57;;;19.30;99.90;;;;;;6160860;23;20465;-87
2022/09/08 04:17:24;;;;;;;4.73;1.93;;;19.30;99.90;;;;;;6156547;23;20435;-87
2022/09/08 04:19:51;;;;;;;2.40;1.43;;;19.20;99.90;;;;;;6156199;23;20404;-87
2022/09/08 04:22:19;;;;;;;2.33;1.90;;;19.30;99.90;;;;;;6156898;23;20402;-88
2022/09/08 04:24:47;;;;;;;2.67;1.70;;;19.30;99.90;;;;;;6155347;23;20403;-87
2022/09/08 04:27:14;;;;;;;2.33;1.70;;;19.30;99.90;;;;;;6157526;23;20439;-87
2022/09/08 04:29:41;;;;;;;3.30;1.90;;;19.20;99.90;;;;;;6176791;23;20422;-87
2022/09/08 04:32:08;;;;;;;3.00;2.00;;;19.10;99.90;;;;;;6177255;23;20486;-87
2022/09/08 04:34:36;;;;;;;2.90;1.50;;;19.10;99.90;;;;;;6172217;23;20438;-86
2022/09/08 04:37:06;;;;;;;1.70;1.23;;;19.10;99.90;;;;;;6164343;23;20420;-86
2022/09/08 04:39:33;;;;;;;2.27;1.70;;;19.00;99.90;;;;;;6170033;23;20453;-87
2022/09/08 04:42:00;;;;;;;1.60;1.10;;;19.00;99.90;;;;;;6158314;23;20411;-88
2022/09/08 04:44:27;;;;;;;2.63;1.60;;;19.00;99.90;;;;;;6152724;23;20412;-86
2022/09/08 04:46:54;;;;;;;2.60;1.27;;;18.90;99.90;;;;;;6151806;23;20434;-88
2022/09/08 04:49:21;;;;;;;2.63;1.27;;;18.80;99.90;;;;;;6154891;23;20989;-86
2022/09/08 04:51:52;;;;;;;1.40;1.10;;;18.80;99.90;;;;;;6174437;23;20403;-87
2022/09/08 04:54:19;;;;;;;1.60;1.00;;;18.70;99.90;;;;;;6154503;23;20442;-88
2022/09/08 04:56:46;;;;;;;5.53;2.90;;;18.70;99.90;;;;;;6155006;23;20440;-88
2022/09/08 04:59:12;;;;;;;2.10;1.33;;;18.70;99.90;;;;;;6154553;23;20413;-88
2022/09/08 05:01:39;;;;;;;2.53;1.20;;;18.70;99.90;;;;;;6154696;23;20411;-87
2022/09/08 05:04:06;;;;;;;3.77;2.50;;;18.70;99.90;;;;;;6180767;23;20403;-86
2022/09/08 05:06:35;;;;;;;2.43;1.60;;;18.80;99.90;;;;;;6182720;23;20431;-85
2022/09/08 05:09:04;;;;;;;5.03;1.50;;;18.80;99.90;;;;;;6163957;23;20403;-88
2022/09/08 05:11:33;;;;;;;2.23;1.47;;;18.80;99.90;;;;;;6154802;23;20407;-87
2022/09/08 05:14:00;;;;;;;3.80;1.70;;;18.80;99.90;;;;;;6175422;23;20414;-86
2022/09/08 05:16:28;;;;;;;1.53;1.10;;;18.80;99.90;;;;;;6159303;23;20705;-88
2022/09/08 05:18:57;;;;;;;4.07;1.60;;;18.80;99.90;;;;;;6158731;23;20819;-87
2022/09/08 05:21:24;;;;;;;2.83;1.47;;;18.80;99.90;;;;;;6158513;23;20413;-87
2022/09/08 05:23:52;;;;;;;3.30;1.60;;;18.80;99.90;;;;;;6167591;23;20402;-87
2022/09/08 05:26:22;;;;;;;2.97;1.43;;;18.80;99.90;;;;;;6160708;23;20423;-87
2022/09/08 05:28:50;;;;;;;2.03;1.53;;;18.80;99.90;;;;;;6157665;23;20418;-87
2022/09/08 05:31:19;;;;;;;4.37;1.40;;;18.70;99.90;;;;;;6158180;23;20425;-87
2022/09/08 05:33:46;;;;;;;3.53;1.63;;;18.80;99.90;;;;;;6160728;23;20407;-89
2022/09/08 05:36:15;;;;;;;1.53;1.30;;;18.80;99.90;;;;;;6160240;23;20450;-87
2022/09/08 05:38:43;;;;;;;2.50;1.33;;;18.80;99.90;;;;;;6158838;23;20886;-87
2022/09/08 05:41:10;;;;;;;1.97;1.63;;;18.80;99.90;;;;;;6157751;23;20407;-88
2022/09/08 05:43:38;;;;;;;2.30;1.40;;;18.70;99.90;;;;;;6156343;23;20768;-87
2022/09/08 05:46:06;;;;;;;6.27;1.83;;;18.60;99.90;;;;;;6156482;23;20934;-87
2022/09/08 05:48:33;;;;;;;3.13;1.53;;;18.60;99.90;;;;;;6157282;23;20415;-86
2022/09/08 05:51:00;;;;;;;2.83;1.50;;;18.60;99.90;;;;;;6157419;23;20399;-88
2022/09/08 05:53:27;;;;;;;3.20;1.50;;;18.70;99.90;;;;;;6157976;23;20437;-87
2022/09/08 05:55:59;;;;;;;1.77;1.47;;;18.70;99.90;;;;;;6158615;23;20446;-88
2022/09/08 05:58:26;;;;;;;4.20;1.97;;;18.70;99.90;;;;;;6165060;23;20392;-88
2022/09/08 06:00:56;;;;;;;4.13;2.00;;;18.70;99.90;;;;;;6172370;23;20431;-87
2022/09/08 06:03:23;;;;;;;3.20;1.63;;;18.60;99.90;;;;;;6173755;23;20785;-86
2022/09/08 06:05:50;;;;;;;2.70;1.63;;;18.50;99.90;;;;;;6177343;23;20427;-86
2022/09/08 06:08:20;;;;;;;2.70;1.83;;;18.50;99.90;;;;;;6176848;23;20395;-87
2022/09/08 06:10:49;;;;;;;2.27;1.37;;;18.50;99.90;;;;;;6162267;23;20427;-87
2022/09/08 06:13:16;;;;;;;2.00;1.60;;;18.50;99.90;;;;;;6164831;23;20407;-88
2022/09/08 06:15:43;;;;;;;1.87;1.30;;;18.60;99.90;;;;;;6168039;23;20455;-86
2022/09/08 06:18:11;;;;;;;2.60;1.77;;;18.60;99.90;;;;;;6180774;23;20475;-85
2022/09/08 06:20:38;;;;;;;7.97;1.63;;;18.60;99.90;;;;;;6181998;23;20467;-85
2022/09/08 06:23:05;;;;;;;1.93;1.60;;;18.70;99.90;;;;;;6182042;23;20427;-87
2022/09/08 06:25:38;;;;;;;3.23;1.80;;;18.70;99.90;;;;;;6162472;23;20411;-87
2022/09/08 06:28:12;;;;;;;1.50;1.20;;;18.70;99.90;;;;;;6166305;23;20359;-85
2022/09/08 06:30:39;;;;;;;3.33;1.73;;;18.70;99.90;;;;;;6172620;23;20431;-86
2022/09/08 06:33:13;;;;;;;5.57;1.73;;;18.70;99.90;;;;;;6165052;23;20415;-86
2022/09/08 06:35:48;;;;;;;2.40;1.30;;;18.70;99.90;;;;;;6159256;23;20454;-86
2022/09/08 06:38:20;;;;;;;1.70;1.27;;;18.60;99.90;;;;;;6176974;23;20395;-84
2022/09/08 06:40:53;;;;;;;1.80;1.03;;;18.60;99.90;;;;;;6184264;23;20402;-84
2022/09/08 06:43:27;;;;;;;2.20;1.03;;;18.60;99.90;;;;;;6168615;23;20747;-86
2022/09/08 06:45:57;;;;;;;1.87;1.10;;;18.60;99.90;;;;;;6156038;23;20454;-87
2022/09/08 06:48:31;;;;;;;3.40;1.20;;;18.60;99.90;;;;;;6155607;23;20402;-87
2022/09/08 06:51:10;;;;;;;2.17;1.20;;;18.60;99.90;;;;;;6157157;23;20391;-85
2022/09/08 06:53:41;;;;;;;1.93;1.03;;;18.60;99.90;;;;;;6155792;23;20376;-87
2022/09/08 06:56:20;;;;;;;2.37;1.40;;;18.60;99.90;;;;;;6158731;23;20793;-87
2022/09/08 06:58:47;;;;;;;2.13;1.00;;;18.70;99.90;;;;;;6157894;23;20443;-86
2022/09/08 07:01:19;;;;;;;2.00;0.93;;;18.70;99.90;;;;;;6156890;23;20735;-86
2022/09/08 07:04:05;;;;;;;3.37;1.27;;;18.70;99.90;;;;;;6157149;23;20901;-87
2022/09/08 07:06:36;;;;;;;2.37;1.17;;;18.80;99.90;;;;;;6156417;23;20427;-87
2022/09/08 07:09:11;;;;;;;1.63;1.03;;;18.70;99.90;;;;;;6156544;23;20400;-87
2022/09/08 07:11:52;;;;;;;2.10;1.20;;;18.70;99.90;;;;;;6159661;23;20391;-87
2022/09/08 07:14:44;;;;;;;7.93;1.70;;;18.70;99.90;;;;;;6157527;23;20846;-85
2022/09/08 07:17:19;;;;;;;2.90;1.40;;;18.60;99.90;;;;;;6156084;23;20447;-87
2022/09/08 07:19:50;;;;;;;3.47;1.17;;;18.70;99.90;;;;;;6157294;23;20392;-86
2022/09/08 07:22:27;;;;;;;2.10;1.23;;;18.70;99.90;;;;;;6157643;23;20391;-86
2022/09/08 07:25:02;;;;;;;2.17;1.13;;;18.70;99.90;;;;;;6159470;23;20418;-85
2022/09/08 07:27:30;;;;;;;4.53;1.20;;;18.80;99.90;;;;;;6159385;23;20396;-85
2022/09/08 07:30:01;;;;;;;2.13;1.30;;;18.80;99.90;;;;;;6158991;23;20449;-86
2022/09/08 07:32:31;;;;;;;2.50;1.00;;;18.90;99.90;;;;;;6156019;23;20400;-86
2022/09/08 07:35:04;;;;;;;2.47;1.47;;;18.90;99.90;;;;;;6159706;23;20402;-86
2022/09/08 07:37:40;;;;;;;3.20;1.33;;;19.00;99.90;;;;;;6160670;23;20392;-88
2022/09/08 07:40:16;;;;;;;2.83;1.40;;;19.20;99.90;;;;;;6154922;23;20415;-78
2022/09/08 07:42:43;;;;;;;2.07;1.30;;;19.20;99.90;;;;;;6154698;23;21074;-78
2022/09/08 07:45:12;;;;;;;1.67;1.40;;;19.20;99.90;;;;;;6154661;23;20411;-77
2022/09/08 07:47:57;;;;;;;1.97;0.90;;;19.20;99.90;;;;;;6154782;23;20439;-76
2022/09/08 07:53:26;;;;;;;3.53;1.17;;;19.30;99.90;;;;;;6152406;23;20399;-80
2022/09/08 07:55:56;;;;;;;3.10;1.20;;;19.60;99.90;;;;;;6157994;23;20501;-81
2022/09/08 07:58:28;;;;;;;1.40;0.80;;;20.00;99.90;;;;;;6157410;23;20406;-88
2022/09/08 08:01:02;;;;;;;1.73;1.00;;;20.50;99.90;;;;;;6156204;23;20396;-87
2022/09/08 08:03:51;;;;;;;3.43;1.97;;;21.00;99.90;;;;;;6154734;23;20406;-86
2022/09/08 08:06:28;;;;;;;4.20;1.53;;;21.30;99.90;;;;;;6156881;23;20930;-86
2022/09/08 08:09:03;;;;;;;3.00;1.10;;;21.60;99.90;;;;;;6173900;23;20359;-88
2022/09/08 08:11:40;;;;;;;7.57;1.67;;;21.60;99.90;;;;;;6179826;23;20395;-84
2022/09/08 08:14:16;;;;;;;3.27;1.60;;;21.50;99.90;;;;;;6182817;23;20391;-85
2022/09/08 08:16:54;;;;;;;2.17;1.67;;;21.80;99.90;;;;;;6182640;23;20486;-87
2022/09/08 08:19:40;;;;;;;2.70;1.27;;;22.20;99.90;;;;;;6171304;23;20411;-88
2022/09/08 08:22:15;;;;;;;5.40;1.27;;;22.40;99.90;;;;;;6158148;23;20380;-87
2022/09/08 08:24:47;;;;;;;2.47;1.10;;;22.60;99.90;;;;;;6154249;23;20791;-85
2022/09/08 08:27:24;;;;;;;2.30;1.40;;;22.50;99.90;;;;;;6155288;23;20418;-87
2022/09/08 08:30:06;;;;;;;4.10;1.10;;;23.40;99.90;;;;;;6155601;23;20416;-87
2022/09/08 08:32:37;;;;;;;3.10;1.33;;;24.70;97.90;;;;;;6155369;23;20386;-88
2022/09/08 08:35:08;;;;;;;1.80;1.00;;;25.80;94.30;;;;;;6155414;23;20476;-87
2022/09/08 08:37:40;;;;;;;3.07;1.10;;;26.50;90.80;;;;;;6153801;23;21008;-88
2022/09/08 08:40:23;;;;;;;3.00;1.00;;;26.50;89.40;;;;;;6156502;23;20378;-87
2022/09/08 08:43:02;;;;;;;1.87;0.97;;;26.00;89.20;;;;;;6156368;23;20442;-88
2022/09/08 08:45:40;;;;;;;2.77;1.30;;;26.60;88.60;;;;;;6157118;23;20435;-88
2022/09/08 08:48:28;;;;;;;1.20;0.77;;;26.80;86.50;;;;;;6178556;23;21102;-87
2022/09/08 08:51:30;;;;;;;1.77;1.00;;;26.60;85.00;;;;;;6178348;23;20419;-87
2022/09/08 08:54:24;;;;;;;1.50;0.80;;;26.40;84.80;;;;;;6152880;23;20440;-87
2022/09/08 08:56:58;;;;;;;1.77;1.00;;;26.50;84.70;;;;;;6159970;23;20457;-88
2022/09/08 08:59:51;;;;;;;1.33;0.90;;;26.60;84.40;;;;;;6172753;23;20453;-86
2022/09/08 09:02:29;;;;;;;2.03;1.60;;;27.00;81.90;;;;;;6177927;23;20392;-86
2022/09/08 09:05:25;;;;;;;3.60;1.30;;;25.90;81.70;;;;;;6173913;23;20367;-86
2022/09/08 09:08:25;;;;;;;4.17;1.33;;;25.20;85.00;;;;;;6163995;23;20420;-85
2022/09/08 09:11:15;;;;;;;2.23;1.20;;;24.30;86.60;;;;;;6173991;23;20389;-86
2022/09/08 09:14:07;;;;;;;2.20;0.90;;;23.70;89.00;;;;;;6161399;23;20392;-87
2022/09/08 09:17:19;;;;;;;1.57;0.93;;;23.40;91.00;;;;;;6157520;23;20459;-86
2022/09/08 09:20:11;;;;;;;1.57;1.00;;;23.30;90.90;;;;;;6102454;23;20419;-87
2022/09/08 09:22:48;;;;;;;4.50;1.37;;;23.40;91.10;;;;;;6156429;23;20397;-86
2022/09/08 09:25:27;;;;;;;2.73;1.40;;;23.70;90.50;;;;;;6154976;23;20400;-88
2022/09/08 09:28:18;;;;;;;4.23;1.13;;;25.30;88.20;;;;;;6154483;23;20389;-87
2022/09/08 09:31:00;;;;;;;1.90;1.20;;;25.20;86.30;;;;;;6154905;23;20409;-87
2022/09/08 09:33:58;;;;;;;1.77;0.80;;;24.90;87.30;;;;;;6158116;23;20756;-87
2022/09/08 09:36:53;;;;;;;2.37;0.80;;;24.60;87.30;;;;;;6149396;23;20455;-87
2022/09/08 09:39:47;;;;;;;3.03;1.43;;;24.30;87.60;;;;;;6158399;23;20457;-86
2022/09/08 09:42:56;;;;;;;2.43;1.13;;;24.30;89.00;;;;;;6159450;23;20403;-86
2022/09/08 09:45:50;;;;;;;3.00;1.07;;;24.00;89.50;;;;;;6161812;23;20423;-87
2022/09/08 09:48:32;;;;;;;1.50;0.97;;;23.70;90.40;;;;;;6103645;23;20775;-86
2022/09/08 09:51:13;;;;;;;1.60;0.90;;;24.00;89.90;;;;;;6170133;23;20375;-86
2022/09/08 09:54:02;;;;;;;1.80;1.10;;;24.40;90.20;;;;;;6173970;23;20413;-87
2022/09/08 09:57:08;;;;;;;3.20;1.10;;;24.90;89.40;;;;;;6175414;23;20448;-86
2022/09/08 10:00:04;;;;;;;1.50;1.03;;;25.60;86.90;;;;;;6179878;23;20419;-85
2022/09/08 10:03:00;;;;;;;3.40;0.70;;;26.20;84.40;;;;;;6182206;23;20482;-86
2022/09/08 10:05:52;;;;;;;1.60;1.13;;;26.30;81.80;;;;;;6181616;23;20427;-87
2022/09/08 10:09:02;;;;;;;1.80;1.00;;;26.50;81.40;;;;;;6172047;23;20383;-86
2022/09/08 10:12:04;;;;;;;1.50;1.10;;;29.80;76.20;;;;;;6102987;23;20939;-86
2022/09/08 10:15:06;;;;;;;1.10;0.70;;;34.20;59.00;;;;;;6157773;23;20414;-87
2022/09/08 10:18:03;;;;;;;2.73;1.13;;;33.40;55.30;;;;;;6158290;23;20451;-86
2022/09/08 10:20:57;;;;;;;1.33;1.07;;;31.20;58.00;;;;;;6176095;23;20438;-86
2022/09/08 10:24:03;;;;;;;2.20;0.90;;;29.40;63.10;;;;;;6162212;23;20789;-87
2022/09/08 10:27:06;;;;;;;2.30;0.97;;;28.50;66.20;;;;;;6086094;23;20435;-87
2022/09/08 10:30:03;;;;;;;1.40;0.83;;;27.50;69.50;;;;;;6140844;23;20413;-86
2022/09/08 10:33:00;;;;;;;2.30;1.20;;;26.60;72.20;;;;;;6156647;23;20373;-87
2022/09/08 10:35:37;;;;;;;2.43;1.30;;;25.70;75.40;;;;;;6156347;23;20410;-87
2022/09/08 10:38:44;;;;;;;3.03;1.10;;;25.30;77.70;;;;;;6155319;23;20441;-86
2022/09/08 10:41:45;;;;;;;1.37;0.77;;;25.00;77.30;;;;;;6109204;23;20624;-87
2022/09/08 10:44:20;;;;;;;2.70;1.17;;;24.70;77.80;;;;;;6112009;23;20420;-86
2022/09/08 10:47:16;;;;;;;1.40;0.97;;;24.60;78.30;;;;;;6157690;23;20445;-86
2022/09/08 10:50:05;;;;;;;3.93;2.50;;;24.50;78.70;;;;;;6158758;23;20414;-86
2022/09/08 10:52:42;;;;;;;1.80;1.10;;;24.40;78.60;;;;;;6174047;23;20437;-85
2022/09/08 10:55:33;;;;;;;2.50;0.80;;;24.20;78.50;;;;;;6158102;23;20386;-87
2022/09/08 10:58:22;;;;;;;2.70;1.17;;;24.00;79.40;;;;;;6160233;23;20459;-86
2022/09/08 11:01:03;;;;;;;1.87;1.03;;;24.00;80.00;;;;;;6159418;23;20381;-88
2022/09/08 11:03:58;;;;;;;2.83;1.23;;;23.80;80.10;;;;;;6157693;23;20400;-87
2022/09/08 11:06:37;;;;;;;2.63;1.13;;;23.90;79.90;;;;;;6158875;23;20433;-87
2022/09/08 11:09:18;;;;;;;3.10;1.17;;;23.90;79.40;;;;;;6161302;23;20400;-87
2022/09/08 11:12:09;;;;;;;3.47;1.23;;;23.70;79.90;;;;;;6159154;23;20396;-89
2022/09/08 11:15:12;;;;;;;1.63;1.00;;;23.50;80.90;;;;;;6160702;23;20404;-88
2022/09/08 11:17:46;;;;;;;2.70;1.30;;;23.40;82.30;;;;;;6158348;23;20430;-88
2022/09/08 11:20:25;;;;;;;2.90;1.17;;;23.40;84.60;;;;;;6158103;23;20403;-86
2022/09/08 11:23:03;;;;;;;5.97;1.30;;;23.30;86.50;;;;;;6159189;23;20413;-86
2022/09/08 11:25:54;;;;;;;2.87;1.30;;;23.50;87.80;;;;;;6158652;23;20460;-87
2022/09/08 11:28:37;;;;;;;3.30;1.30;;;23.60;89.30;;;;;;6156529;23;20434;-87
2022/09/08 11:31:19;;;;;;;1.60;0.90;;;23.50;88.80;;;;;;6159063;23;20426;-87
2022/09/08 11:34:02;;;;;;;2.03;1.20;;;23.70;88.80;;;;;;6169495;23;20392;-88
2022/09/08 11:36:59;;;;;;;1.80;1.10;;;25.00;87.00;;;;;;6160886;23;20481;-86
2022/09/08 11:39:44;;;;;;;2.60;1.10;;;26.10;81.70;;;;;;6158857;23;20425;-87
2022/09/08 11:42:24;;;;;;;3.43;1.13;;;28.00;77.10;;;;;;6159324;23;20388;-88
2022/09/08 11:45:02;;;;;;;1.77;1.00;;;28.90;70.00;;;;;;6157904;23;20403;-88
2022/09/08 11:47:58;;;;;;;1.73;1.13;;;28.70;68.60;;;;;;6163857;23;20385;-88
2022/09/08 11:50:38;;;;;;;1.70;1.23;;;28.50;68.40;;;;;;6172580;23;20397;-86
2022/09/08 11:53:43;;;;;;;6.00;1.37;;;27.70;69.50;;;;;;6172121;23;20387;-87
2022/09/08 11:56:37;;;;;;;2.53;1.20;;;26.80;70.10;;;;;;6156219;23;20861;-88
2022/09/08 11:59:27;;;;;;;2.23;1.10;;;25.80;74.50;;;;;;6175065;23;20395;-85
2022/09/08 12:02:09;;;;;;;4.10;1.10;;;25.10;75.70;;;;;;6156658;23;20397;-87
2022/09/08 12:04:48;;;;;;;1.93;1.60;;;24.80;75.70;;;;;;6170462;23;20373;-85
2022/09/08 12:07:30;;;;;;;3.60;1.43;;;24.60;76.90;;;;;;6175901;23;20425;-87
2022/09/08 12:10:33;;;;;;;2.60;1.20;;;25.10;76.50;;;;;;6178303;23;20394;-87
2022/09/08 12:13:06;;;;;;;3.70;1.40;;;26.20;71.50;;;;;;6169650;23;20390;-88
2022/09/08 12:15:58;;;;;;;3.43;1.40;;;26.30;69.50;;;;;;6159674;23;20431;-88
2022/09/08 12:18:37;;;;;;;3.47;1.40;;;26.10;69.80;;;;;;6161367;23;20426;-88
2022/09/08 12:21:46;;;;;;;2.20;1.10;;;25.60;71.90;;;;;;6156755;23;20482;-87
2022/09/08 12:24:32;;;;;;;1.87;1.17;;;25.10;72.40;;;;;;6151477;23;20421;-88
2022/09/08 12:27:10;;;;;;;4.03;1.40;;;24.80;73.30;;;;;;6155786;23;20430;-88
2022/09/08 12:29:45;;;;;;;1.60;0.70;;;24.50;75.00;;;;;;6158762;23;20381;-88
2022/09/08 12:32:41;;;;;;;1.87;1.00;;;24.30;76.50;;;;;;6158873;23;20400;-88
2022/09/08 12:35:30;;;;;;;2.10;1.07;;;24.00;77.20;;;;;;6165207;23;20421;-88
2022/09/08 12:38:11;;;;;;;3.90;1.23;;;24.00;78.90;;;;;;6168448;23;20476;-85
2022/09/08 12:40:53;;;;;;;5.37;1.17;;;24.30;79.90;;;;;;6157636;23;20400;-87
2022/09/08 12:43:21;;;;;;;3.47;1.53;;;24.20;73.50;;;;;;6156265;23;20408;-87
2022/09/08 12:46:13;;;;;;;3.30;1.40;;;24.10;73.00;;;;;;6154750;23;20448;-87
2022/09/08 12:48:53;;;;;;;3.60;1.00;;;24.20;75.00;;;;;;6155822;23;20385;-87
2022/09/08 12:51:25;;;;;;;5.17;1.00;;;23.80;77.20;;;;;;6156016;23;20376;-87
2022/09/08 12:54:28;;;;;;;2.30;1.20;;;24.20;78.20;;;;;;6155337;23;20416;-85
2022/09/08 12:57:29;;;;;;;3.93;1.30;;;26.20;74.20;;;;;;6154722;23;20449;-87
2022/09/08 13:00:05;;;;;;;3.77;1.30;;;28.10;66.90;;;;;;6156758;23;20917;-87
2022/09/08 13:02:59;;;;;;;3.03;1.40;;;29.40;62.00;;;;;;6156364;23;20387;-87
2022/09/08 13:05:41;;;;;;;3.50;1.10;;;29.00;60.20;;;;;;6130813;23;21042;-87
2022/09/08 13:08:17;;;;;;;3.27;1.50;;;29.50;60.80;;;;;;6155821;23;20397;-88
2022/09/08 13:10:46;;;;;;;1.77;0.80;;;28.70;58.50;;;;;;6165742;23;20384;-87
2022/09/08 13:13:33;;;;;;;4.43;1.30;;;27.70;61.40;;;;;;6166446;23;20410;-88
2022/09/08 13:16:11;;;;;;;3.50;1.10;;;27.40;63.50;;;;;;6171488;23;20434;-87
2022/09/08 13:18:42;;;;;;;2.37;1.00;;;26.70;64.00;;;;;;6166115;23;20431;-87
2022/09/08 13:21:14;;;;;;;3.00;1.00;;;26.50;65.70;;;;;;6158130;23;20388;-86
2022/09/08 13:23:47;;;;;;;2.30;0.90;;;26.50;65.70;;;;;;6163098;23;20538;-87
2022/09/08 13:26:38;;;;;;;3.67;1.70;;;26.50;66.70;;;;;;6177600;23;20439;-86
2022/09/08 13:29:26;;;;;;;3.20;1.20;;;26.70;65.70;;;;;;6157067;23;20428;-87
2022/09/08 13:32:03;;;;;;;2.10;1.10;;;26.10;63.50;;;;;;6163312;23;20927;-86
2022/09/08 13:34:47;;;;;;;3.40;1.10;;;25.40;64.90;;;;;;6158287;23;20878;-87
2022/09/08 13:37:35;;;;;;;2.40;1.00;;;26.10;64.90;;;;;;6158846;23;20447;-88
2022/09/08 13:40:18;;;;;;;2.70;1.10;;;26.70;62.50;;;;;;6156213;23;20387;-88